Time;durP1;ratioP1;P1;durP2;ratioP2;P2;SDS_P1;SDS_P2;PMS_P1;PMS_P2;Temp;Humidity;BMP_temperature;BMP_pressure;BME280_temperature;BME280_humidity;BME280_pressure;Samples;Min_cycle;Max_cycle;Signal;HPM_P1;HPM_P2
2022/01/30 00:01:23;;;;;;;6.28;1.67;;;27.40;99.90;;;;;;5085928;28;20604;-87
2022/01/30 00:03:54;;;;;;;5.30;1.38;;;27.50;99.90;;;;;;5079229;28;20710;-88
2022/01/30 00:06:26;;;;;;;3.15;1.10;;;27.60;99.90;;;;;;5073955;28;20203;-87
2022/01/30 00:08:59;;;;;;;4.78;1.20;;;27.60;99.90;;;;;;5077080;28;20188;-87
2022/01/30 00:11:35;;;;;;;5.75;1.60;;;27.60;99.90;;;;;;5094841;28;20280;-87
2022/01/30 00:14:06;;;;;;;7.60;1.33;;;27.70;99.90;;;;;;5092903;28;20288;-87
2022/01/30 00:16:37;;;;;;;5.82;1.30;;;27.70;99.90;;;;;;5094535;28;20199;-87
2022/01/30 00:19:16;;;;;;;6.85;1.60;;;27.80;99.90;;;;;;5083460;28;20271;-88
2022/01/30 00:21:50;;;;;;;5.28;1.13;;;27.90;99.90;;;;;;5054780;28;20201;-88
2022/01/30 00:24:33;;;;;;;5.68;1.30;;;28.10;99.90;;;;;;5067763;28;20635;-88
2022/01/30 00:27:03;;;;;;;7.13;1.45;;;28.10;99.90;;;;;;5082051;28;20704;-89
2022/01/30 00:29:34;;;;;;;8.13;1.80;;;28.10;99.90;;;;;;5062309;28;20219;-90
2022/01/30 00:32:06;;;;;;;8.80;1.60;;;28.20;99.90;;;;;;5094288;28;20199;-87
2022/01/30 00:34:36;;;;;;;8.27;1.40;;;28.30;99.90;;;;;;5097578;28;20222;-88
2022/01/30 00:37:07;;;;;;;5.82;1.40;;;28.40;99.90;;;;;;5089499;28;20196;-88
2022/01/30 00:39:40;;;;;;;8.00;1.50;;;28.40;99.90;;;;;;5082567;28;20245;-88
2022/01/30 00:42:11;;;;;;;7.13;1.40;;;28.30;99.90;;;;;;5094702;28;20192;-88
2022/01/30 00:44:42;;;;;;;4.28;1.10;;;28.20;99.90;;;;;;5077279;28;20206;-87
2022/01/30 00:47:14;;;;;;;5.90;1.90;;;28.30;99.90;;;;;;5088014;28;20191;-89
2022/01/30 00:49:44;;;;;;;7.07;1.40;;;28.30;99.90;;;;;;5094080;28;20253;-88
2022/01/30 00:52:16;;;;;;;8.43;1.88;;;28.20;99.90;;;;;;5093999;28;20229;-89
2022/01/30 00:54:50;;;;;;;10.10;1.90;;;28.30;99.90;;;;;;5088843;28;20219;-89
2022/01/30 00:57:21;;;;;;;5.65;1.30;;;28.20;99.90;;;;;;5075522;28;20200;-87
2022/01/30 00:59:52;;;;;;;7.75;1.20;;;28.20;99.90;;;;;;5069522;28;20215;-89
2022/01/30 01:02:23;;;;;;;5.10;1.27;;;28.20;99.90;;;;;;5092474;28;20210;-89
2022/01/30 01:04:53;;;;;;;6.32;1.33;;;28.20;99.90;;;;;;5090978;28;20195;-90
2022/01/30 01:07:24;;;;;;;8.13;1.42;;;28.30;99.90;;;;;;5090579;28;20290;-88
2022/01/30 01:10:04;;;;;;;7.18;1.60;;;28.40;99.90;;;;;;5092179;28;20206;-87
2022/01/30 01:23:21;;;;;;;7.20;1.52;;;28.70;99.90;;;;;;5093206;28;20190;-88
2022/01/30 01:23:52;;;;;;;3.00;1.40;;;28.70;99.90;;;;;;5091725;28;20191;-88
2022/01/30 01:26:27;;;;;;;5.90;1.35;;;28.60;99.90;;;;;;5078494;28;20222;-88
2022/01/30 01:28:59;;;;;;;6.53;1.40;;;28.50;99.90;;;;;;5084560;28;20669;-92
2022/01/30 01:31:31;;;;;;;5.40;1.30;;;28.50;99.90;;;;;;5090540;28;20195;-93
2022/01/30 01:34:17;;;;;;;6.22;2.08;;;28.50;99.90;;;;;;5091118;28;20198;-92
2022/01/30 01:36:48;;;;;;;7.72;1.38;;;28.40;99.90;;;;;;5069510;28;20651;-87
2022/01/30 01:39:19;;;;;;;5.25;1.17;;;28.40;99.90;;;;;;5077972;28;20203;-89
2022/01/30 01:41:53;;;;;;;5.65;1.27;;;28.40;99.90;;;;;;5072104;28;20207;-91
2022/01/30 01:45:18;;;;;;;8.50;1.85;;;28.30;99.90;;;;;;5068356;28;20203;-88
2022/01/30 01:47:52;;;;;;;5.88;1.15;;;28.40;99.90;;;;;;5078313;28;20187;-93
2022/01/30 01:50:38;;;;;;;7.68;1.42;;;28.50;99.90;;;;;;5085946;28;20229;-92
2022/01/30 01:53:11;;;;;;;6.07;1.10;;;28.60;99.90;;;;;;5080041;28;20206;-92
2022/01/30 01:55:42;;;;;;;6.25;1.58;;;28.50;99.90;;;;;;5072869;28;20698;-92
2022/01/30 01:58:17;;;;;;;3.40;1.10;;;28.50;99.90;;;;;;5065328;28;20200;-93
2022/01/30 02:00:49;;;;;;;6.10;1.20;;;28.60;99.90;;;;;;5086471;28;20186;-92
2022/01/30 02:03:22;;;;;;;5.05;1.13;;;28.70;99.90;;;;;;5113732;27;20566;-91
2022/01/30 02:05:58;;;;;;;5.82;1.33;;;28.80;99.90;;;;;;5059343;28;20199;-91
2022/01/30 02:08:34;;;;;;;4.03;1.10;;;28.90;99.90;;;;;;5075508;28;20560;-90
2022/01/30 02:11:07;;;;;;;5.80;1.30;;;29.00;99.90;;;;;;5092533;28;20627;-90
2022/01/30 02:14:13;;;;;;;3.83;1.08;;;29.00;99.90;;;;;;5086832;28;20199;-90
2022/01/30 02:27:56;;;;;;;6.75;1.30;;;29.10;99.90;;;;;;5099112;28;20241;-93
2022/01/30 02:30:32;;;;;;;7.05;1.80;;;29.10;99.90;;;;;;5079075;28;20183;-93
2022/01/30 02:33:02;;;;;;;5.90;1.08;;;29.00;99.90;;;;;;5096415;28;20214;-95
2022/01/30 02:35:33;;;;;;;7.50;1.10;;;29.10;99.90;;;;;;5071083;28;20220;-94
2022/01/30 02:38:06;;;;;;;5.30;1.13;;;29.20;99.90;;;;;;5093833;28;20225;-93
2022/01/30 02:40:41;;;;;;;7.30;1.63;;;29.30;99.90;;;;;;5088150;28;20219;-93
2022/01/30 02:43:14;;;;;;;4.45;1.13;;;29.30;99.90;;;;;;5076108;28;20208;-89
2022/01/30 02:45:51;;;;;;;5.90;1.27;;;29.40;99.90;;;;;;5090916;28;20283;-90
2022/01/30 02:48:31;;;;;;;5.20;1.35;;;29.50;99.90;;;;;;5090381;28;20206;-89
2022/01/30 02:51:11;;;;;;;6.25;1.35;;;29.50;99.90;;;;;;5055622;28;20287;-88
2022/01/30 02:53:54;;;;;;;8.55;1.48;;;29.40;99.90;;;;;;5083679;28;20266;-89
2022/01/30 02:56:26;;;;;;;4.28;1.35;;;29.40;99.90;;;;;;5095082;28;20219;-89
2022/01/30 02:58:58;;;;;;;5.00;1.20;;;29.40;99.90;;;;;;5093851;28;20221;-90
2022/01/30 03:01:29;;;;;;;5.80;1.63;;;29.30;99.90;;;;;;5092392;28;20208;-93
2022/01/30 03:04:01;;;;;;;4.90;1.27;;;29.30;99.90;;;;;;5095278;28;20268;-93
2022/01/30 03:06:32;;;;;;;4.45;1.10;;;29.20;99.90;;;;;;5093235;28;20604;-91
2022/01/30 03:09:07;;;;;;;5.10;1.40;;;29.30;99.90;;;;;;5071157;28;20737;-93
2022/01/30 03:11:40;;;;;;;4.30;1.10;;;29.30;99.90;;;;;;5069930;28;20177;-92
2022/01/30 03:14:11;;;;;;;4.88;1.30;;;29.40;99.90;;;;;;5085614;28;20172;-90
2022/01/30 03:16:43;;;;;;;4.70;1.40;;;29.40;99.90;;;;;;5089347;28;20207;-90
2022/01/30 03:19:14;;;;;;;5.38;1.50;;;29.40;99.90;;;;;;5069666;28;20219;-89
2022/01/30 03:21:48;;;;;;;7.90;1.58;;;29.30;99.90;;;;;;5056068;28;20192;-89
2022/01/30 03:24:30;;;;;;;5.00;1.30;;;29.40;99.90;;;;;;5068998;28;20199;-89
2022/01/30 03:27:02;;;;;;;4.22;1.20;;;29.40;99.90;;;;;;5091959;28;20712;-91
2022/01/30 03:29:34;;;;;;;5.10;1.25;;;29.50;99.90;;;;;;5072944;28;20689;-92
2022/01/30 03:32:05;;;;;;;7.03;1.20;;;29.60;99.90;;;;;;5077452;28;20195;-92
2022/01/30 03:34:36;;;;;;;9.05;1.45;;;29.50;99.90;;;;;;5059294;28;20230;-93
2022/01/30 03:37:08;;;;;;;5.18;1.33;;;29.50;99.90;;;;;;5082635;28;20203;-92
2022/01/30 03:39:42;;;;;;;7.07;1.30;;;29.50;99.90;;;;;;5056059;28;20223;-91
2022/01/30 03:42:14;;;;;;;6.55;1.42;;;29.50;99.90;;;;;;5055526;28;20192;-93
2022/01/30 03:44:46;;;;;;;9.27;1.77;;;29.50;99.90;;;;;;5076433;28;20203;-91
2022/01/30 03:47:17;;;;;;;7.45;1.70;;;29.60;99.90;;;;;;5090592;28;20195;-91
2022/01/30 03:49:47;;;;;;;5.20;1.42;;;29.50;99.90;;;;;;5085926;28;20613;-91
2022/01/30 03:52:18;;;;;;;7.10;1.25;;;29.60;99.90;;;;;;5091846;27;20202;-90
2022/01/30 03:54:51;;;;;;;5.53;1.38;;;29.60;99.90;;;;;;5072799;28;20261;-89
2022/01/30 03:57:22;;;;;;;6.03;1.48;;;29.40;99.90;;;;;;5089213;28;20249;-92
2022/01/30 03:59:52;;;;;;;6.38;1.45;;;29.40;99.90;;;;;;5091323;28;20199;-90
2022/01/30 04:02:23;;;;;;;6.80;1.55;;;29.40;99.90;;;;;;5081216;28;20258;-91
2022/01/30 04:04:54;;;;;;;4.20;1.27;;;29.40;99.90;;;;;;5054658;28;20242;-91
2022/01/30 04:07:25;;;;;;;5.75;1.23;;;29.40;99.90;;;;;;5087823;28;20196;-94
2022/01/30 04:09:59;;;;;;;6.88;1.42;;;29.40;99.90;;;;;;5074393;28;20203;-94
2022/01/30 04:12:33;;;;;;;5.38;1.52;;;29.30;99.90;;;;;;5081208;28;20203;-92
2022/01/30 04:15:05;;;;;;;10.93;1.73;;;29.30;99.90;;;;;;5093876;28;20218;-93
2022/01/30 04:17:36;;;;;;;4.72;1.27;;;29.40;99.90;;;;;;5089885;28;20195;-94
2022/01/30 04:20:08;;;;;;;7.68;1.88;;;29.40;99.90;;;;;;5082953;28;20654;-90
2022/01/30 04:22:41;;;;;;;9.75;1.90;;;29.50;99.90;;;;;;5099228;28;20245;-90
2022/01/30 04:25:15;;;;;;;7.07;1.60;;;29.40;99.90;;;;;;5081145;28;20199;-91
2022/01/30 04:27:46;;;;;;;9.77;1.67;;;29.40;99.90;;;;;;5088446;28;20206;-92
2022/01/30 04:30:18;;;;;;;3.95;1.50;;;29.40;99.90;;;;;;5085281;28;20200;-93
2022/01/30 04:32:50;;;;;;;6.40;1.52;;;29.30;99.90;;;;;;5093915;28;20188;-93
2022/01/30 04:35:27;;;;;;;6.25;1.50;;;29.30;99.90;;;;;;5078741;28;20220;-93
2022/01/30 04:38:12;;;;;;;6.05;1.50;;;29.30;99.90;;;;;;5059191;28;20201;-93
2022/01/30 04:41:09;;;;;;;7.13;1.33;;;29.20;99.90;;;;;;5072774;28;20560;-92
2022/01/30 04:52:53;;;;;;;6.10;1.58;;;29.30;99.90;;;;;;5083160;28;20215;-90
2022/01/30 04:58:20;;;;;;;5.78;1.20;;;29.40;99.90;;;;;;5068759;28;20241;-90
2022/01/30 05:01:09;;;;;;;5.32;1.38;;;29.30;99.90;;;;;;5055550;28;20184;-90
2022/01/30 05:03:58;;;;;;;9.00;1.45;;;29.30;99.90;;;;;;5067331;28;20662;-92
2022/01/30 05:06:53;;;;;;;4.82;1.45;;;29.30;99.90;;;;;;5071678;28;20203;-93
2022/01/30 05:09:26;;;;;;;5.30;1.15;;;29.40;99.90;;;;;;5094456;28;20206;-92
2022/01/30 05:11:57;;;;;;;6.18;1.20;;;29.40;99.90;;;;;;5078885;28;20295;-92
2022/01/30 05:14:34;;;;;;;8.15;1.60;;;29.40;99.90;;;;;;5079956;28;20210;-93
2022/01/30 05:17:07;;;;;;;5.75;1.77;;;29.50;99.90;;;;;;5073233;28;20227;-92
2022/01/30 05:19:38;;;;;;;7.28;1.80;;;29.50;99.90;;;;;;5083233;28;20570;-95
2022/01/30 05:22:12;;;;;;;4.50;1.25;;;29.50;99.90;;;;;;5088921;28;20215;-91
2022/01/30 05:24:43;;;;;;;9.00;1.45;;;29.50;99.90;;;;;;5052903;28;20196;-92
2022/01/30 05:27:16;;;;;;;6.10;1.15;;;29.50;99.90;;;;;;5061050;28;20223;-89
2022/01/30 05:29:51;;;;;;;4.88;1.17;;;29.60;99.90;;;;;;5075011;28;20680;-88
2022/01/30 05:32:22;;;;;;;4.60;1.30;;;29.60;99.90;;;;;;5084368;28;20208;-92
2022/01/30 05:34:55;;;;;;;7.60;1.30;;;29.70;99.90;;;;;;5077108;28;20212;-92
2022/01/30 05:37:28;;;;;;;7.85;1.50;;;29.80;99.90;;;;;;5068524;28;20273;-92
2022/01/30 05:40:00;;;;;;;4.18;1.23;;;29.90;99.90;;;;;;5086031;28;20202;-90
2022/01/30 05:42:31;;;;;;;3.85;1.20;;;30.00;99.90;;;;;;5093420;28;20191;-88
2022/01/30 05:45:16;;;;;;;5.50;1.10;;;29.90;99.90;;;;;;5078650;28;20646;-87
2022/01/30 05:47:52;;;;;;;6.32;1.40;;;30.10;99.90;;;;;;5064806;28;20222;-87
2022/01/30 05:50:23;;;;;;;6.95;1.45;;;30.20;99.90;;;;;;5077889;28;20203;-88
2022/01/30 05:52:55;;;;;;;6.15;1.48;;;30.30;99.90;;;;;;5072605;28;20662;-87
2022/01/30 05:55:27;;;;;;;7.75;1.58;;;30.30;99.90;;;;;;5073478;28;20216;-91
2022/01/30 05:57:58;;;;;;;6.57;1.40;;;30.30;99.90;;;;;;5081400;28;20214;-89
2022/01/30 06:00:31;;;;;;;6.28;1.55;;;30.40;99.90;;;;;;5092573;28;20192;-89
2022/01/30 06:03:03;;;;;;;6.93;1.45;;;30.50;99.90;;;;;;5092075;28;20226;-87
2022/01/30 06:05:34;;;;;;;4.10;1.20;;;30.50;99.90;;;;;;5098690;28;20627;-93
2022/01/30 06:08:14;;;;;;;5.00;1.15;;;30.60;99.90;;;;;;5093242;28;20214;-90
2022/01/30 06:10:45;;;;;;;6.85;1.50;;;30.90;99.90;;;;;;5101342;28;20195;-91
2022/01/30 06:13:16;;;;;;;3.70;1.10;;;31.00;99.90;;;;;;5084863;28;20206;-89
2022/01/30 06:15:49;;;;;;;3.17;1.13;;;31.20;99.90;;;;;;5074775;28;20232;-90
2022/01/30 06:18:21;;;;;;;4.82;1.52;;;31.40;99.90;;;;;;5054530;28;20250;-89
2022/01/30 06:20:52;;;;;;;5.55;1.20;;;31.60;99.90;;;;;;5096178;28;20199;-89
2022/01/30 06:23:26;;;;;;;4.85;1.20;;;31.80;99.90;;;;;;5094740;28;20194;-88
2022/01/30 06:25:58;;;;;;;6.55;1.52;;;32.10;99.90;;;;;;5094127;28;20249;-88
2022/01/30 06:28:29;;;;;;;4.35;1.02;;;32.50;99.90;;;;;;5093070;28;20191;-89
2022/01/30 06:31:02;;;;;;;6.55;1.60;;;32.80;99.90;;;;;;5092933;28;20195;-88
2022/01/30 06:33:33;;;;;;;3.45;1.30;;;33.10;99.90;;;;;;5073422;28;20192;-88
2022/01/30 06:36:04;;;;;;;5.85;1.23;;;33.40;99.90;;;;;;5072424;28;20232;-89
2022/01/30 06:38:34;;;;;;;4.70;1.27;;;33.60;99.90;;;;;;5075809;28;20253;-89
2022/01/30 06:41:06;;;;;;;6.00;1.17;;;33.70;99.90;;;;;;5092826;28;20582;-90
2022/01/30 06:43:36;;;;;;;5.25;1.30;;;33.80;99.90;;;;;;5087179;28;20187;-90
2022/01/30 06:46:11;;;;;;;6.28;1.40;;;33.70;99.90;;;;;;5087547;28;20199;-89
2022/01/30 06:48:42;;;;;;;5.05;1.08;;;33.50;99.90;;;;;;5073891;28;20282;-90
2022/01/30 06:51:14;;;;;;;7.43;1.50;;;32.90;99.90;;;;;;5092450;28;20202;-88
2022/01/30 06:53:44;;;;;;;7.15;1.60;;;32.60;99.90;;;;;;5072139;28;20212;-89
2022/01/30 06:56:16;;;;;;;5.55;1.40;;;32.40;99.90;;;;;;5088373;28;20215;-91
2022/01/30 06:58:47;;;;;;;4.97;1.23;;;32.50;99.90;;;;;;5062354;28;20196;-90
2022/01/30 07:01:22;;;;;;;6.63;1.55;;;32.00;99.90;;;;;;5092536;28;20572;-92
2022/01/30 07:03:54;;;;;;;5.45;1.30;;;31.70;99.90;;;;;;5080543;28;20223;-92
2022/01/30 07:06:26;;;;;;;5.93;1.48;;;31.30;99.90;;;;;;5091286;28;20208;-90
2022/01/30 07:08:57;;;;;;;4.57;1.40;;;31.50;99.90;;;;;;5084430;28;20191;-90
2022/01/30 07:11:28;;;;;;;4.65;1.35;;;32.20;99.90;;;;;;5073187;28;20554;-91
2022/01/30 07:13:59;;;;;;;6.00;1.23;;;33.10;99.90;;;;;;5071146;28;20783;-92
2022/01/30 07:16:33;;;;;;;6.97;1.40;;;33.90;99.90;;;;;;5093586;28;20215;-93
2022/01/30 07:19:05;;;;;;;3.38;1.08;;;34.30;99.90;;;;;;5072227;28;20230;-94
2022/01/30 07:21:37;;;;;;;4.45;1.17;;;34.70;99.90;;;;;;5102597;28;20191;-92
2022/01/30 07:24:10;;;;;;;3.75;1.13;;;35.00;99.90;;;;;;5094109;28;20197;-93
2022/01/30 07:26:43;;;;;;;4.95;1.20;;;35.40;99.90;;;;;;5095495;28;20232;-90
2022/01/30 07:29:15;;;;;;;5.53;1.10;;;35.30;99.90;;;;;;5095397;28;20202;-91
2022/01/30 07:31:49;;;;;;;2.60;1.00;;;35.30;99.90;;;;;;5092068;28;20184;-91
2022/01/30 07:34:20;;;;;;;4.45;1.25;;;35.30;99.90;;;;;;5075859;28;20689;-91
2022/01/30 07:36:56;;;;;;;3.25;0.90;;;35.30;99.90;;;;;;5077279;28;20220;-95
2022/01/30 07:39:30;;;;;;;4.18;1.10;;;35.50;99.90;;;;;;5079815;28;20210;-94
2022/01/30 07:42:01;;;;;;;4.55;1.00;;;35.40;99.90;;;;;;5055137;28;20189;-94
2022/01/30 07:44:31;;;;;;;4.65;1.30;;;35.50;99.90;;;;;;5090228;28;20199;-92
2022/01/30 07:47:07;;;;;;;4.75;0.90;;;35.20;99.90;;;;;;5092233;28;20704;-92
2022/01/30 07:49:38;;;;;;;3.10;0.88;;;35.40;99.90;;;;;;5056069;28;20199;-93
2022/01/30 07:52:11;;;;;;;4.85;1.25;;;35.40;99.90;;;;;;5061526;28;20189;-90
2022/01/30 07:54:42;;;;;;;3.90;1.23;;;35.50;99.90;;;;;;5078848;28;20278;-93
2022/01/30 07:57:14;;;;;;;5.97;1.00;;;35.50;99.90;;;;;;5096737;28;20227;-90
2022/01/30 07:59:45;;;;;;;5.25;1.05;;;35.40;99.90;;;;;;5094100;28;20687;-92
2022/01/30 08:02:18;;;;;;;2.38;0.85;;;35.10;99.90;;;;;;5094427;28;20203;-92
2022/01/30 08:04:49;;;;;;;4.10;1.13;;;34.50;99.90;;;;;;5093287;28;20203;-93
2022/01/30 08:07:19;;;;;;;4.47;1.00;;;33.80;99.90;;;;;;5091980;28;20310;-91
2022/01/30 08:09:51;;;;;;;4.07;1.30;;;33.30;99.90;;;;;;5095841;28;20195;-94
2022/01/30 08:12:22;;;;;;;4.53;1.05;;;32.70;99.90;;;;;;5095915;28;20219;-93
2022/01/30 08:14:54;;;;;;;3.33;1.25;;;32.50;99.90;;;;;;5076024;28;20209;-93
2022/01/30 08:17:32;;;;;;;4.88;1.40;;;32.00;99.90;;;;;;5055794;28;20239;-89
2022/01/30 08:20:02;;;;;;;4.50;1.23;;;31.80;99.90;;;;;;5058922;28;20192;-89
2022/01/30 08:22:34;;;;;;;4.60;1.40;;;31.40;99.90;;;;;;5058092;28;20196;-89
2022/01/30 08:25:05;;;;;;;2.95;1.15;;;31.10;99.90;;;;;;5081151;28;20254;-90
2022/01/30 08:27:36;;;;;;;4.38;1.20;;;30.70;99.90;;;;;;5095301;28;20222;-91
2022/01/30 08:30:08;;;;;;;5.10;1.35;;;30.20;99.90;;;;;;5092126;28;20619;-95
2022/01/30 08:32:45;;;;;;;5.22;1.50;;;29.80;99.90;;;;;;5055627;28;20258;-96
2022/01/30 08:35:19;;;;;;;4.70;1.25;;;29.50;99.90;;;;;;5069893;28;20191;-94
2022/01/30 08:37:50;;;;;;;4.13;1.27;;;29.20;99.90;;;;;;5095245;28;20219;-94
2022/01/30 08:40:23;;;;;;;4.72;1.20;;;28.90;99.90;;;;;;5092490;28;20651;-95
2022/01/30 08:42:55;;;;;;;7.50;1.52;;;28.70;99.90;;;;;;5088389;28;20199;-94
2022/01/30 08:45:26;;;;;;;7.82;1.30;;;28.60;99.90;;;;;;5084473;28;20565;-95
2022/01/30 08:47:59;;;;;;;4.22;1.10;;;28.40;99.90;;;;;;5095827;28;20261;-94
2022/01/30 08:50:31;;;;;;;7.32;1.42;;;28.40;99.90;;;;;;5102360;28;20206;-93
2022/01/30 08:53:01;;;;;;;5.82;1.48;;;28.20;99.90;;;;;;5092222;28;20233;-92
2022/01/30 08:55:33;;;;;;;5.25;1.27;;;28.20;99.90;;;;;;5078499;28;20196;-96
2022/01/30 08:58:07;;;;;;;6.32;1.50;;;28.10;99.90;;;;;;5056139;28;20235;-94
2022/01/30 09:00:40;;;;;;;4.45;1.10;;;28.00;99.90;;;;;;5054887;28;20208;-91
2022/01/30 09:03:13;;;;;;;6.00;1.42;;;27.90;99.90;;;;;;5057027;28;20626;-91
2022/01/30 09:05:44;;;;;;;7.53;1.60;;;27.80;99.90;;;;;;5092577;28;20259;-92
2022/01/30 09:08:15;;;;;;;7.50;1.50;;;27.70;99.90;;;;;;5092290;28;20230;-93
2022/01/30 09:10:48;;;;;;;6.40;1.20;;;27.60;99.90;;;;;;5057415;28;20635;-93
2022/01/30 09:13:22;;;;;;;4.82;1.35;;;27.60;99.90;;;;;;5090790;28;20195;-94
2022/01/30 09:15:56;;;;;;;4.63;1.17;;;27.50;99.90;;;;;;5077397;28;20199;-92
2022/01/30 09:18:30;;;;;;;4.38;1.30;;;27.50;99.90;;;;;;5092518;28;20282;-92
2022/01/30 09:21:01;;;;;;;3.78;1.10;;;27.40;99.90;;;;;;5089858;28;20625;-92
2022/01/30 09:23:33;;;;;;;5.90;1.50;;;27.40;99.90;;;;;;5091190;28;20183;-94
2022/01/30 09:26:04;;;;;;;5.57;1.33;;;27.40;99.90;;;;;;5053662;28;20289;-92
2022/01/30 09:28:36;;;;;;;5.53;1.40;;;27.30;99.90;;;;;;5055215;28;20262;-91
2022/01/30 09:31:08;;;;;;;4.75;1.23;;;27.20;99.90;;;;;;5093693;28;21037;-90
2022/01/30 09:33:41;;;;;;;6.25;1.40;;;27.20;99.90;;;;;;5092126;28;20204;-94
2022/01/30 09:36:12;;;;;;;4.65;1.25;;;27.20;99.90;;;;;;5092984;28;20203;-94
2022/01/30 09:38:43;;;;;;;5.60;1.27;;;27.20;99.90;;;;;;5095971;28;20282;-93
2022/01/30 09:41:16;;;;;;;7.65;1.45;;;27.20;99.90;;;;;;5106117;28;20199;-92
2022/01/30 09:43:47;;;;;;;6.05;1.30;;;27.20;99.90;;;;;;5059651;28;20191;-94
2022/01/30 09:46:19;;;;;;;7.43;1.58;;;27.20;99.90;;;;;;5073573;28;20246;-92
2022/01/30 09:48:55;;;;;;;5.70;1.58;;;27.20;99.90;;;;;;5075572;28;20230;-94
2022/01/30 09:51:26;;;;;;;4.93;1.40;;;27.20;99.90;;;;;;5089857;28;20199;-93
2022/01/30 09:53:56;;;;;;;5.63;1.30;;;27.10;99.90;;;;;;5091587;28;20614;-93
2022/01/30 09:56:27;;;;;;;5.50;1.30;;;27.10;99.90;;;;;;5056224;28;20204;-93
2022/01/30 09:58:57;;;;;;;6.00;1.42;;;27.00;99.90;;;;;;5075140;28;20249;-91
2022/01/30 10:01:33;;;;;;;5.88;1.33;;;27.00;99.90;;;;;;5092820;28;20199;-93
2022/01/30 10:04:06;;;;;;;5.60;1.40;;;26.90;99.90;;;;;;5080575;28;20232;-89
2022/01/30 10:06:55;;;;;;;3.05;1.20;;;26.90;99.90;;;;;;5053188;28;20223;-91
2022/01/30 10:09:30;;;;;;;4.80;1.50;;;26.90;99.90;;;;;;5067500;28;20222;-93
2022/01/30 10:12:15;;;;;;;3.97;1.40;;;26.90;99.90;;;;;;5080141;28;20267;-96
2022/01/30 10:15:02;;;;;;;4.72;1.20;;;26.90;99.90;;;;;;5088984;28;20213;-94
2022/01/30 10:17:36;;;;;;;6.03;1.45;;;26.80;99.90;;;;;;5084117;28;20231;-95
2022/01/30 10:20:17;;;;;;;5.63;1.33;;;26.80;99.90;;;;;;5062890;28;20231;-95
2022/01/30 10:22:56;;;;;;;5.35;1.40;;;26.80;99.90;;;;;;5070515;28;20211;-93
2022/01/30 10:25:28;;;;;;;10.07;1.70;;;26.70;99.90;;;;;;5055862;28;20192;-92
2022/01/30 10:28:10;;;;;;;4.10;1.08;;;26.70;99.90;;;;;;5052272;28;20193;-92
2022/01/30 10:30:47;;;;;;;4.82;1.38;;;26.70;99.90;;;;;;5081755;28;20199;-96
2022/01/30 10:33:20;;;;;;;7.07;1.25;;;26.60;99.90;;;;;;5091015;28;20232;-93
2022/01/30 10:35:55;;;;;;;6.63;1.40;;;26.70;99.90;;;;;;5092999;28;20646;-92
2022/01/30 10:38:30;;;;;;;4.95;1.20;;;26.70;99.90;;;;;;5084247;28;20258;-91
2022/01/30 10:41:10;;;;;;;5.05;1.00;;;26.70;99.90;;;;;;5076209;28;20221;-92
2022/01/30 10:43:56;;;;;;;6.68;1.30;;;26.60;99.90;;;;;;5073500;28;20215;-91
2022/01/30 10:46:29;;;;;;;5.32;1.45;;;26.60;99.90;;;;;;5092903;28;20207;-92
2022/01/30 10:49:01;;;;;;;4.50;1.17;;;26.60;99.90;;;;;;5090256;28;20199;-93
2022/01/30 10:51:35;;;;;;;10.18;1.75;;;26.50;99.90;;;;;;5093047;28;20195;-94
2022/01/30 10:54:10;;;;;;;6.03;1.17;;;26.50;99.90;;;;;;5090275;28;20225;-90
2022/01/30 10:56:41;;;;;;;5.07;1.10;;;26.50;99.90;;;;;;5092873;28;20206;-90
2022/01/30 10:59:14;;;;;;;4.53;1.15;;;26.50;99.90;;;;;;5090003;28;20187;-92
2022/01/30 11:01:46;;;;;;;6.63;1.08;;;26.50;99.90;;;;;;5094707;28;20199;-88
2022/01/30 11:04:27;;;;;;;2.90;1.00;;;26.40;99.90;;;;;;5094819;28;20238;-90
2022/01/30 11:07:04;;;;;;;5.78;1.55;;;26.40;99.90;;;;;;5079463;28;20199;-92
2022/01/30 11:09:39;;;;;;;5.43;1.23;;;26.40;99.90;;;;;;5085282;28;20220;-90
2022/01/30 11:12:14;;;;;;;5.10;1.13;;;26.50;99.90;;;;;;5095830;28;20260;-90
2022/01/30 11:15:04;;;;;;;5.55;1.63;;;26.40;99.90;;;;;;5095236;28;20195;-90
2022/01/30 11:17:36;;;;;;;7.15;1.50;;;26.40;99.90;;;;;;5095329;28;20257;-90
2022/01/30 11:20:07;;;;;;;6.97;1.40;;;26.40;99.90;;;;;;5086843;28;20203;-88
2022/01/30 11:22:44;;;;;;;6.85;1.40;;;26.30;99.90;;;;;;5096590;28;20215;-88
2022/01/30 11:25:16;;;;;;;5.03;1.58;;;26.20;99.90;;;;;;5089591;28;20198;-88
2022/01/30 11:27:47;;;;;;;4.50;1.30;;;26.20;99.90;;;;;;5096378;28;20259;-90
2022/01/30 11:30:20;;;;;;;6.88;1.20;;;26.20;99.90;;;;;;5097761;28;20599;-88
2022/01/30 11:32:54;;;;;;;6.78;1.35;;;26.20;99.90;;;;;;5095767;28;20187;-89
2022/01/30 11:35:25;;;;;;;4.70;1.20;;;26.20;99.90;;;;;;5055496;28;20208;-90
2022/01/30 11:37:58;;;;;;;7.15;1.27;;;26.20;99.90;;;;;;5070256;28;20273;-89
2022/01/30 11:40:28;;;;;;;4.43;1.27;;;26.20;99.90;;;;;;5083705;28;20215;-89
2022/01/30 11:43:09;;;;;;;7.85;1.45;;;26.20;99.90;;;;;;5094961;28;20203;-89
2022/01/30 11:45:40;;;;;;;7.40;1.63;;;26.20;99.90;;;;;;5085324;28;20212;-92
2022/01/30 11:48:18;;;;;;;7.88;1.55;;;26.10;99.90;;;;;;5055804;28;20209;-93
2022/01/30 11:51:03;;;;;;;5.63;1.40;;;26.10;99.90;;;;;;5070017;28;20273;-87
2022/01/30 11:53:37;;;;;;;5.85;1.40;;;26.10;99.90;;;;;;5056351;28;20193;-89
2022/01/30 11:56:07;;;;;;;4.22;1.23;;;26.10;99.90;;;;;;5094504;28;20199;-87
2022/01/30 11:58:46;;;;;;;8.18;1.40;;;26.10;99.90;;;;;;5086664;28;20208;-89
2022/01/30 12:01:38;;;;;;;9.38;1.83;;;26.10;99.90;;;;;;5094064;28;20191;-92
2022/01/30 12:04:25;;;;;;;3.88;1.08;;;26.10;99.90;;;;;;5092097;28;20251;-90
2022/01/30 12:06:56;;;;;;;4.72;1.20;;;26.10;99.90;;;;;;5092221;28;20234;-90
2022/01/30 12:09:32;;;;;;;6.22;1.70;;;26.10;99.90;;;;;;5094720;28;20197;-89
2022/01/30 12:12:05;;;;;;;5.85;1.35;;;26.10;99.90;;;;;;5075025;28;20267;-86
2022/01/30 12:14:58;;;;;;;5.68;1.38;;;26.10;99.90;;;;;;5083574;28;20256;-90
2022/01/30 12:17:50;;;;;;;6.80;1.38;;;26.00;99.90;;;;;;5094374;28;20260;-89
2022/01/30 12:20:23;;;;;;;4.63;1.20;;;26.10;99.90;;;;;;5084004;28;20668;-88
2022/01/30 12:22:55;;;;;;;4.38;1.10;;;26.10;99.90;;;;;;5092274;28;20222;-89
2022/01/30 12:25:39;;;;;;;5.80;1.55;;;26.00;99.90;;;;;;5094058;28;20184;-91
2022/01/30 12:28:11;;;;;;;5.70;1.40;;;26.00;99.90;;;;;;5094566;28;20732;-92
2022/01/30 12:30:46;;;;;;;6.88;1.40;;;26.00;99.90;;;;;;5091827;28;20187;-93
2022/01/30 12:33:46;;;;;;;6.85;1.42;;;26.00;99.90;;;;;;5076943;28;20243;-93
2022/01/30 12:36:19;;;;;;;7.40;1.30;;;26.00;99.90;;;;;;5068910;28;20248;-86
2022/01/30 12:38:59;;;;;;;5.20;1.42;;;26.00;99.90;;;;;;5092705;28;20222;-90
2022/01/30 12:41:35;;;;;;;4.55;1.33;;;25.90;99.90;;;;;;5092479;28;20210;-94
2022/01/30 12:44:08;;;;;;;6.97;1.50;;;26.00;99.90;;;;;;5090089;28;20228;-89
2022/01/30 12:46:46;;;;;;;5.15;1.45;;;25.90;99.90;;;;;;5085605;28;20196;-94
2022/01/30 12:49:19;;;;;;;8.77;1.83;;;25.90;99.90;;;;;;5072202;28;20208;-93
2022/01/30 12:51:52;;;;;;;6.43;1.30;;;25.90;99.90;;;;;;5073775;28;21055;-93
2022/01/30 12:54:24;;;;;;;5.78;1.33;;;25.90;99.90;;;;;;5080237;28;20253;-92
2022/01/30 12:56:58;;;;;;;7.00;1.38;;;25.90;99.90;;;;;;5090294;28;20230;-88
2022/01/30 12:59:29;;;;;;;6.78;1.45;;;25.80;99.90;;;;;;5091613;28;20221;-93
2022/01/30 13:02:08;;;;;;;4.47;1.40;;;25.80;99.90;;;;;;5090197;28;20570;-90
2022/01/30 13:04:41;;;;;;;5.88;1.45;;;25.70;99.90;;;;;;5072845;28;20219;-92
2022/01/30 13:07:15;;;;;;;6.55;1.52;;;25.80;99.90;;;;;;5077575;28;20201;-91
2022/01/30 13:09:46;;;;;;;6.18;1.60;;;25.80;99.90;;;;;;5070745;28;20545;-91
2022/01/30 13:12:22;;;;;;;5.18;1.30;;;25.70;99.90;;;;;;5086292;28;20212;-90
2022/01/30 13:14:54;;;;;;;6.72;1.30;;;25.70;99.90;;;;;;5092533;28;20195;-92
2022/01/30 13:17:31;;;;;;;5.38;1.48;;;25.70;99.90;;;;;;5098962;28;20196;-90
2022/01/30 13:20:01;;;;;;;6.85;1.48;;;25.70;99.90;;;;;;5091111;28;20195;-88
2022/01/30 13:22:37;;;;;;;6.05;1.55;;;25.70;99.90;;;;;;5063152;28;20191;-94
2022/01/30 13:25:09;;;;;;;6.40;1.65;;;25.70;99.90;;;;;;5091233;28;20207;-94
2022/01/30 13:27:44;;;;;;;5.18;1.40;;;25.70;99.90;;;;;;5093689;28;20658;-92
2022/01/30 13:30:23;;;;;;;6.10;1.55;;;25.60;99.90;;;;;;5091804;28;20190;-86
2022/01/30 13:32:54;;;;;;;7.10;1.38;;;25.50;99.90;;;;;;5092405;28;20196;-94
2022/01/30 13:35:29;;;;;;;5.88;1.40;;;25.50;99.90;;;;;;5056252;28;20200;-92
2022/01/30 13:38:05;;;;;;;8.18;1.50;;;25.50;99.90;;;;;;5061513;28;20276;-91
2022/01/30 13:40:42;;;;;;;5.30;1.35;;;25.50;99.90;;;;;;5076387;28;20220;-92
2022/01/30 13:43:24;;;;;;;5.20;1.30;;;25.50;99.90;;;;;;5063388;28;20285;-92
2022/01/30 13:48:44;;;;;;;6.82;1.42;;;25.50;99.90;;;;;;5089909;28;20224;-93
2022/01/30 13:51:24;;;;;;;7.63;1.40;;;25.40;99.90;;;;;;5093312;28;20203;-93
2022/01/30 13:54:10;;;;;;;5.85;1.35;;;25.40;99.90;;;;;;5091894;28;20195;-94
2022/01/30 13:56:42;;;;;;;8.88;1.88;;;25.50;99.90;;;;;;5052927;28;20621;-92